sensor_id;sensor_type;location;lat;lon;timestamp;temperature;humidity
80540;DHT22;69869;48.036;15.780;2023-07-24T00:02:04;22.10;87.30
80540;DHT22;69869;48.036;15.780;2023-07-24T00:04:31;22.10;86.80
80540;DHT22;69869;48.036;15.780;2023-07-24T00:06:57;22.10;87.60
80540;DHT22;69869;48.036;15.780;2023-07-24T00:09:23;22.10;87.00
80540;DHT22;69869;48.036;15.780;2023-07-24T00:11:49;22.10;87.50
80540;DHT22;69869;48.036;15.780;2023-07-24T00:14:16;22.10;86.50
80540;DHT22;69869;48.036;15.780;2023-07-24T00:16:41;22.10;87.30
80540;DHT22;69869;48.036;15.780;2023-07-24T00:19:07;22.10;86.90
80540;DHT22;69869;48.036;15.780;2023-07-24T00:21:33;22.10;86.80
80540;DHT22;69869;48.036;15.780;2023-07-24T00:23:58;22.10;87.30
80540;DHT22;69869;48.036;15.780;2023-07-24T00:26:24;22.10;87.30
80540;DHT22;69869;48.036;15.780;2023-07-24T00:28:50;22.10;86.70
80540;DHT22;69869;48.036;15.780;2023-07-24T00:31:16;22.10;86.90
80540;DHT22;69869;48.036;15.780;2023-07-24T00:33:41;22.10;87.40
80540;DHT22;69869;48.036;15.780;2023-07-24T00:36:07;22.10;87.80
80540;DHT22;69869;48.036;15.780;2023-07-24T00:38:32;22.10;87.00
80540;DHT22;69869;48.036;15.780;2023-07-24T00:40:58;22.10;87.80
80540;DHT22;69869;48.036;15.780;2023-07-24T00:43:24;22.10;86.80
80540;DHT22;69869;48.036;15.780;2023-07-24T00:45:49;22.10;87.50
80540;DHT22;69869;48.036;15.780;2023-07-24T00:48:15;22.10;86.50
80540;DHT22;69869;48.036;15.780;2023-07-24T00:50:43;22.10;87.50
80540;DHT22;69869;48.036;15.780;2023-07-24T00:53:11;22.10;87.60
80540;DHT22;69869;48.036;15.780;2023-07-24T00:55:37;22.10;87.70
80540;DHT22;69869;48.036;15.780;2023-07-24T00:58:03;22.10;87.20
80540;DHT22;69869;48.036;15.780;2023-07-24T01:00:30;22.10;87.60
80540;DHT22;69869;48.036;15.780;2023-07-24T01:02:56;22.20;87.60
80540;DHT22;69869;48.036;15.780;2023-07-24T01:05:25;22.10;87.60
80540;DHT22;69869;48.036;15.780;2023-07-24T01:07:52;22.10;88.30
80540;DHT22;69869;48.036;15.780;2023-07-24T01:10:17;22.10;86.90
80540;DHT22;69869;48.036;15.780;2023-07-24T01:12:59;22.10;86.70
80540;DHT22;69869;48.036;15.780;2023-07-24T01:15:36;22.10;87.40
80540;DHT22;69869;48.036;15.780;2023-07-24T01:18:09;22.10;87.30
80540;DHT22;69869;48.036;15.780;2023-07-24T01:20:43;22.10;87.70
80540;DHT22;69869;48.036;15.780;2023-07-24T01:25:56;22.10;87.80
80540;DHT22;69869;48.036;15.780;2023-07-24T01:28:22;22.10;87.00
80540;DHT22;69869;48.036;15.780;2023-07-24T01:30:48;22.10;87.70
80540;DHT22;69869;48.036;15.780;2023-07-24T01:33:14;22.10;87.70
80540;DHT22;69869;48.036;15.780;2023-07-24T01:35:41;22.10;87.80
80540;DHT22;69869;48.036;15.780;2023-07-24T01:38:12;22.10;87.60
80540;DHT22;69869;48.036;15.780;2023-07-24T01:40:42;22.10;87.50
80540;DHT22;69869;48.036;15.780;2023-07-24T01:43:08;22.10;87.70
80540;DHT22;69869;48.036;15.780;2023-07-24T01:45:34;22.10;87.20
80540;DHT22;69869;48.036;15.780;2023-07-24T01:48:03;22.10;87.60
80540;DHT22;69869;48.036;15.780;2023-07-24T01:50:29;22.10;87.80
80540;DHT22;69869;48.036;15.780;2023-07-24T01:52:55;22.10;87.70
80540;DHT22;69869;48.036;15.780;2023-07-24T01:55:20;22.10;87.50
80540;DHT22;69869;48.036;15.780;2023-07-24T01:57:46;22.10;87.80
80540;DHT22;69869;48.036;15.780;2023-07-24T02:00:12;22.10;87.60
80540;DHT22;69869;48.036;15.780;2023-07-24T02:02:37;22.10;87.80
80540;DHT22;69869;48.036;15.780;2023-07-24T02:05:04;22.10;87.50
80540;DHT22;69869;48.036;15.780;2023-07-24T02:07:29;22.10;87.50
80540;DHT22;69869;48.036;15.780;2023-07-24T02:09:58;22.10;87.50
80540;DHT22;69869;48.036;15.780;2023-07-24T02:12:24;22.10;87.70
80540;DHT22;69869;48.036;15.780;2023-07-24T02:14:49;22.10;87.70
80540;DHT22;69869;48.036;15.780;2023-07-24T02:17:17;22.10;87.00
80540;DHT22;69869;48.036;15.780;2023-07-24T02:19:43;22.10;87.80
80540;DHT22;69869;48.036;15.780;2023-07-24T02:22:09;22.10;87.80
80540;DHT22;69869;48.036;15.780;2023-07-24T02:24:34;22.10;87.20
80540;DHT22;69869;48.036;15.780;2023-07-24T02:27:00;22.10;86.90
80540;DHT22;69869;48.036;15.780;2023-07-24T02:29:26;22.10;87.70
80540;DHT22;69869;48.036;15.780;2023-07-24T02:31:53;22.10;87.50
80540;DHT22;69869;48.036;15.780;2023-07-24T02:34:19;22.10;87.20
80540;DHT22;69869;48.036;15.780;2023-07-24T02:36:44;22.10;87.50
80540;DHT22;69869;48.036;15.780;2023-07-24T02:39:10;22.10;87.70
80540;DHT22;69869;48.036;15.780;2023-07-24T02:41:36;22.10;87.50
80540;DHT22;69869;48.036;15.780;2023-07-24T02:44:02;22.10;87.10
80540;DHT22;69869;48.036;15.780;2023-07-24T02:46:29;22.10;87.20
80540;DHT22;69869;48.036;15.780;2023-07-24T02:48:56;22.20;87.70
80540;DHT22;69869;48.036;15.780;2023-07-24T02:51:21;22.10;87.20
80540;DHT22;69869;48.036;15.780;2023-07-24T02:53:47;22.10;87.50
80540;DHT22;69869;48.036;15.780;2023-07-24T02:56:13;22.10;87.60
80540;DHT22;69869;48.036;15.780;2023-07-24T02:58:38;22.10;87.70
80540;DHT22;69869;48.036;15.780;2023-07-24T03:01:08;22.10;87.80
80540;DHT22;69869;48.036;15.780;2023-07-24T03:03:34;22.10;87.80
80540;DHT22;69869;48.036;15.780;2023-07-24T03:06:00;22.10;87.70
80540;DHT22;69869;48.036;15.780;2023-07-24T03:08:25;22.10;87.80
80540;DHT22;69869;48.036;15.780;2023-07-24T03:10:51;22.10;87.80
80540;DHT22;69869;48.036;15.780;2023-07-24T03:13:17;22.10;87.80
80540;DHT22;69869;48.036;15.780;2023-07-24T03:15:42;22.10;87.80
80540;DHT22;69869;48.036;15.780;2023-07-24T03:18:08;22.10;87.70
80540;DHT22;69869;48.036;15.780;2023-07-24T03:20:34;22.10;87.80
80540;DHT22;69869;48.036;15.780;2023-07-24T03:22:59;22.10;87.70
80540;DHT22;69869;48.036;15.780;2023-07-24T03:25:25;22.10;87.70
80540;DHT22;69869;48.036;15.780;2023-07-24T03:27:50;22.10;87.40
80540;DHT22;69869;48.036;15.780;2023-07-24T03:30:16;22.10;87.70
80540;DHT22;69869;48.036;15.780;2023-07-24T03:32:42;22.10;86.90
80540;DHT22;69869;48.036;15.780;2023-07-24T03:35:08;22.10;87.40
80540;DHT22;69869;48.036;15.780;2023-07-24T03:37:36;22.10;87.60
80540;DHT22;69869;48.036;15.780;2023-07-24T03:40:02;22.10;87.20
80540;DHT22;69869;48.036;15.780;2023-07-24T03:42:30;22.10;87.20
80540;DHT22;69869;48.036;15.780;2023-07-24T03:44:56;22.10;87.30
80540;DHT22;69869;48.036;15.780;2023-07-24T03:47:25;22.10;87.30
80540;DHT22;69869;48.036;15.780;2023-07-24T03:49:51;22.10;87.80
80540;DHT22;69869;48.036;15.780;2023-07-24T03:52:16;22.10;87.70
80540;DHT22;69869;48.036;15.780;2023-07-24T03:54:42;22.10;87.60
80540;DHT22;69869;48.036;15.780;2023-07-24T03:57:08;22.10;87.40
80540;DHT22;69869;48.036;15.780;2023-07-24T03:59:34;22.10;87.60
80540;DHT22;69869;48.036;15.780;2023-07-24T04:01:59;22.10;87.60
80540;DHT22;69869;48.036;15.780;2023-07-24T04:04:25;22.10;87.80
80540;DHT22;69869;48.036;15.780;2023-07-24T04:06:51;22.10;87.40
80540;DHT22;69869;48.036;15.780;2023-07-24T04:09:16;22.10;87.50
80540;DHT22;69869;48.036;15.780;2023-07-24T04:11:45;22.10;87.40
80540;DHT22;69869;48.036;15.780;2023-07-24T04:14:11;22.20;87.80
80540;DHT22;69869;48.036;15.780;2023-07-24T04:16:36;22.10;87.70
80540;DHT22;69869;48.036;15.780;2023-07-24T04:19:02;22.10;87.80
80540;DHT22;69869;48.036;15.780;2023-07-24T04:21:28;22.10;87.80
80540;DHT22;69869;48.036;15.780;2023-07-24T04:23:54;22.10;87.70
80540;DHT22;69869;48.036;15.780;2023-07-24T04:26:19;22.10;87.70
80540;DHT22;69869;48.036;15.780;2023-07-24T04:28:45;22.10;87.70
80540;DHT22;69869;48.036;15.780;2023-07-24T04:31:11;22.10;87.60
80540;DHT22;69869;48.036;15.780;2023-07-24T04:33:36;22.10;87.80
80540;DHT22;69869;48.036;15.780;2023-07-24T04:36:02;22.10;87.60
80540;DHT22;69869;48.036;15.780;2023-07-24T04:38:28;22.10;87.70
80540;DHT22;69869;48.036;15.780;2023-07-24T04:40:54;22.10;87.70
80540;DHT22;69869;48.036;15.780;2023-07-24T04:43:19;22.10;87.40
80540;DHT22;69869;48.036;15.780;2023-07-24T04:45:45;22.10;87.10
80540;DHT22;69869;48.036;15.780;2023-07-24T04:48:11;22.10;87.10
80540;DHT22;69869;48.036;15.780;2023-07-24T04:50:36;22.10;87.50
80540;DHT22;69869;48.036;15.780;2023-07-24T04:53:02;22.10;87.60
80540;DHT22;69869;48.036;15.780;2023-07-24T04:55:27;22.10;87.60
80540;DHT22;69869;48.036;15.780;2023-07-24T04:57:53;22.10;87.50
80540;DHT22;69869;48.036;15.780;2023-07-24T05:00:19;22.10;87.40
80540;DHT22;69869;48.036;15.780;2023-07-24T05:02:45;22.10;87.70
80540;DHT22;69869;48.036;15.780;2023-07-24T05:05:10;22.10;87.70
80540;DHT22;69869;48.036;15.780;2023-07-24T05:07:36;22.10;87.60
80540;DHT22;69869;48.036;15.780;2023-07-24T05:10:01;22.10;87.70
80540;DHT22;69869;48.036;15.780;2023-07-24T05:12:27;22.10;87.60
80540;DHT22;69869;48.036;15.780;2023-07-24T05:14:53;22.10;87.60
80540;DHT22;69869;48.036;15.780;2023-07-24T05:17:18;22.10;87.70
80540;DHT22;69869;48.036;15.780;2023-07-24T05:19:47;22.10;87.60
80540;DHT22;69869;48.036;15.780;2023-07-24T05:22:13;22.10;87.40
80540;DHT22;69869;48.036;15.780;2023-07-24T05:24:38;22.10;87.50
80540;DHT22;69869;48.036;15.780;2023-07-24T05:27:07;22.10;87.70
80540;DHT22;69869;48.036;15.780;2023-07-24T05:29:33;22.10;87.40
80540;DHT22;69869;48.036;15.780;2023-07-24T05:31:58;22.10;87.70
80540;DHT22;69869;48.036;15.780;2023-07-24T05:34:25;22.10;87.70
80540;DHT22;69869;48.036;15.780;2023-07-24T05:36:50;22.10;87.60
80540;DHT22;69869;48.036;15.780;2023-07-24T05:39:16;22.10;87.80
80540;DHT22;69869;48.036;15.780;2023-07-24T05:41:42;22.10;87.80
80540;DHT22;69869;48.036;15.780;2023-07-24T05:46:37;22.10;87.20
80540;DHT22;69869;48.036;15.780;2023-07-24T05:49:03;22.10;87.00
80540;DHT22;69869;48.036;15.780;2023-07-24T05:51:29;22.10;87.30
80540;DHT22;69869;48.036;15.780;2023-07-24T05:53:54;22.10;87.20
80540;DHT22;69869;48.036;15.780;2023-07-24T05:56:20;22.10;87.30
80540;DHT22;69869;48.036;15.780;2023-07-24T05:58:46;22.10;87.40
80540;DHT22;69869;48.036;15.780;2023-07-24T06:01:11;22.10;87.40
80540;DHT22;69869;48.036;15.780;2023-07-24T06:03:37;22.10;87.00
80540;DHT22;69869;48.036;15.780;2023-07-24T06:06:04;22.10;87.40
80540;DHT22;69869;48.036;15.780;2023-07-24T06:08:30;22.10;87.20
80540;DHT22;69869;48.036;15.780;2023-07-24T06:10:55;22.10;87.70
80540;DHT22;69869;48.036;15.780;2023-07-24T06:13:21;22.10;87.40
80540;DHT22;69869;48.036;15.780;2023-07-24T06:15:48;22.10;87.70
80540;DHT22;69869;48.036;15.780;2023-07-24T06:18:14;22.10;87.80
80540;DHT22;69869;48.036;15.780;2023-07-24T06:20:40;22.10;87.60
80540;DHT22;69869;48.036;15.780;2023-07-24T06:23:05;22.10;86.90
80540;DHT22;69869;48.036;15.780;2023-07-24T06:25:32;22.10;87.10
80540;DHT22;69869;48.036;15.780;2023-07-24T06:27:58;22.10;86.20
80540;DHT22;69869;48.036;15.780;2023-07-24T06:30:24;22.10;86.80
80540;DHT22;69869;48.036;15.780;2023-07-24T06:32:49;22.10;87.00
80540;DHT22;69869;48.036;15.780;2023-07-24T06:35:15;22.10;86.70
80540;DHT22;69869;48.036;15.780;2023-07-24T06:37:40;22.10;86.90
80540;DHT22;69869;48.036;15.780;2023-07-24T06:40:07;22.10;86.40
80540;DHT22;69869;48.036;15.780;2023-07-24T06:42:33;22.10;86.40
80540;DHT22;69869;48.036;15.780;2023-07-24T06:44:59;22.10;86.10
80540;DHT22;69869;48.036;15.780;2023-07-24T06:47:25;22.10;86.30
80540;DHT22;69869;48.036;15.780;2023-07-24T06:49:51;22.10;86.60
80540;DHT22;69869;48.036;15.780;2023-07-24T06:52:16;22.10;86.30
80540;DHT22;69869;48.036;15.780;2023-07-24T06:54:42;22.10;86.10
80540;DHT22;69869;48.036;15.780;2023-07-24T06:57:08;22.10;86.50
80540;DHT22;69869;48.036;15.780;2023-07-24T06:59:33;22.10;86.50
80540;DHT22;69869;48.036;15.780;2023-07-24T07:01:59;22.10;87.30
80540;DHT22;69869;48.036;15.780;2023-07-24T07:04:25;22.10;87.10
80540;DHT22;69869;48.036;15.780;2023-07-24T07:06:50;22.10;86.80
80540;DHT22;69869;48.036;15.780;2023-07-24T07:09:16;22.10;86.40
80540;DHT22;69869;48.036;15.780;2023-07-24T07:11:42;22.10;86.50
80540;DHT22;69869;48.036;15.780;2023-07-24T07:14:09;22.10;86.50
80540;DHT22;69869;48.036;15.780;2023-07-24T07:16:35;22.10;85.90
80540;DHT22;69869;48.036;15.780;2023-07-24T07:19:00;22.10;85.90
80540;DHT22;69869;48.036;15.780;2023-07-24T07:21:26;22.10;85.70
80540;DHT22;69869;48.036;15.780;2023-07-24T07:23:52;22.10;85.60
80540;DHT22;69869;48.036;15.780;2023-07-24T07:26:17;22.10;85.80
80540;DHT22;69869;48.036;15.780;2023-07-24T07:28:43;22.10;86.70
80540;DHT22;69869;48.036;15.780;2023-07-24T07:31:10;22.10;86.80
80540;DHT22;69869;48.036;15.780;2023-07-24T07:33:36;22.10;86.10
80540;DHT22;69869;48.036;15.780;2023-07-24T07:36:02;22.10;86.40
80540;DHT22;69869;48.036;15.780;2023-07-24T07:38:29;22.10;86.00
80540;DHT22;69869;48.036;15.780;2023-07-24T07:40:54;22.10;86.50
80540;DHT22;69869;48.036;15.780;2023-07-24T07:43:20;22.10;86.10
80540;DHT22;69869;48.036;15.780;2023-07-24T07:45:47;22.10;85.50
80540;DHT22;69869;48.036;15.780;2023-07-24T07:48:12;22.10;85.20
80540;DHT22;69869;48.036;15.780;2023-07-24T07:50:38;22.10;85.30
80540;DHT22;69869;48.036;15.780;2023-07-24T07:53:04;22.10;85.10
80540;DHT22;69869;48.036;15.780;2023-07-24T07:55:29;22.10;85.00
80540;DHT22;69869;48.036;15.780;2023-07-24T07:57:55;22.10;84.70
80540;DHT22;69869;48.036;15.780;2023-07-24T08:00:20;22.10;84.30
80540;DHT22;69869;48.036;15.780;2023-07-24T08:02:47;22.10;84.70
80540;DHT22;69869;48.036;15.780;2023-07-24T08:05:12;22.10;84.80
80540;DHT22;69869;48.036;15.780;2023-07-24T08:07:38;22.10;84.70
80540;DHT22;69869;48.036;15.780;2023-07-24T08:10:04;22.10;84.30
80540;DHT22;69869;48.036;15.780;2023-07-24T08:12:30;22.10;84.20
80540;DHT22;69869;48.036;15.780;2023-07-24T08:14:56;22.10;83.80
80540;DHT22;69869;48.036;15.780;2023-07-24T08:17:22;22.10;84.20
80540;DHT22;69869;48.036;15.780;2023-07-24T08:19:48;22.10;84.30
80540;DHT22;69869;48.036;15.780;2023-07-24T08:22:13;22.10;84.00
80540;DHT22;69869;48.036;15.780;2023-07-24T08:24:39;22.10;84.20
80540;DHT22;69869;48.036;15.780;2023-07-24T08:27:06;22.20;83.60
80540;DHT22;69869;48.036;15.780;2023-07-24T08:29:31;22.10;83.80
80540;DHT22;69869;48.036;15.780;2023-07-24T08:31:57;22.20;83.70
80540;DHT22;69869;48.036;15.780;2023-07-24T08:34:22;22.10;83.50
80540;DHT22;69869;48.036;15.780;2023-07-24T08:36:48;22.10;83.80
80540;DHT22;69869;48.036;15.780;2023-07-24T08:39:14;22.20;84.40
80540;DHT22;69869;48.036;15.780;2023-07-24T08:41:39;22.20;83.50
80540;DHT22;69869;48.036;15.780;2023-07-24T08:44:07;22.20;83.70
80540;DHT22;69869;48.036;15.780;2023-07-24T08:46:39;22.20;83.80
80540;DHT22;69869;48.036;15.780;2023-07-24T08:49:11;22.20;83.80
80540;DHT22;69869;48.036;15.780;2023-07-24T08:51:37;22.10;84.00
80540;DHT22;69869;48.036;15.780;2023-07-24T08:54:04;22.20;83.60
80540;DHT22;69869;48.036;15.780;2023-07-24T08:56:30;22.20;84.00
80540;DHT22;69869;48.036;15.780;2023-07-24T08:58:56;22.20;83.90
80540;DHT22;69869;48.036;15.780;2023-07-24T09:01:22;22.20;83.30
80540;DHT22;69869;48.036;15.780;2023-07-24T09:03:47;22.20;84.10
80540;DHT22;69869;48.036;15.780;2023-07-24T09:06:13;22.20;83.90
80540;DHT22;69869;48.036;15.780;2023-07-24T09:08:43;22.20;82.90
80540;DHT22;69869;48.036;15.780;2023-07-24T09:11:10;22.20;83.60
80540;DHT22;69869;48.036;15.780;2023-07-24T09:13:40;22.20;83.50
80540;DHT22;69869;48.036;15.780;2023-07-24T09:16:06;22.30;84.30
80540;DHT22;69869;48.036;15.780;2023-07-24T09:18:42;22.30;84.30
80540;DHT22;69869;48.036;15.780;2023-07-24T09:21:09;22.30;84.00
80540;DHT22;69869;48.036;15.780;2023-07-24T09:23:37;22.30;83.90
80540;DHT22;69869;48.036;15.780;2023-07-24T09:26:07;22.30;83.80
80540;DHT22;69869;48.036;15.780;2023-07-24T09:28:33;22.20;83.80
80540;DHT22;69869;48.036;15.780;2023-07-24T09:31:00;22.20;83.80
80540;DHT22;69869;48.036;15.780;2023-07-24T09:33:40;22.30;83.90
80540;DHT22;69869;48.036;15.780;2023-07-24T09:36:07;22.30;83.30
80540;DHT22;69869;48.036;15.780;2023-07-24T09:38:37;22.30;83.20
80540;DHT22;69869;48.036;15.780;2023-07-24T09:41:04;22.30;83.60
80540;DHT22;69869;48.036;15.780;2023-07-24T09:43:31;22.30;83.10
80540;DHT22;69869;48.036;15.780;2023-07-24T09:45:57;22.30;83.30
80540;DHT22;69869;48.036;15.780;2023-07-24T09:48:24;22.30;83.10
80540;DHT22;69869;48.036;15.780;2023-07-24T09:50:54;22.30;83.60
80540;DHT22;69869;48.036;15.780;2023-07-24T09:53:41;22.30;83.50
80540;DHT22;69869;48.036;15.780;2023-07-24T09:56:09;22.30;83.70
80540;DHT22;69869;48.036;15.780;2023-07-24T09:58:38;22.20;84.90
80540;DHT22;69869;48.036;15.780;2023-07-24T10:01:05;22.20;84.80
80540;DHT22;69869;48.036;15.780;2023-07-24T10:03:39;22.20;85.00
80540;DHT22;69869;48.036;15.780;2023-07-24T10:06:05;22.30;85.40
80540;DHT22;69869;48.036;15.780;2023-07-24T10:08:31;22.20;85.10
80540;DHT22;69869;48.036;15.780;2023-07-24T10:11:00;22.20;83.50
80540;DHT22;69869;48.036;15.780;2023-07-24T10:13:27;22.30;84.80
80540;DHT22;69869;48.036;15.780;2023-07-24T10:15:53;22.30;83.80
80540;DHT22;69869;48.036;15.780;2023-07-24T10:18:26;22.20;84.90
80540;DHT22;69869;48.036;15.780;2023-07-24T10:21:04;22.20;85.30
80540;DHT22;69869;48.036;15.780;2023-07-24T10:23:30;22.20;85.30
80540;DHT22;69869;48.036;15.780;2023-07-24T10:26:02;22.20;84.70
80540;DHT22;69869;48.036;15.780;2023-07-24T10:28:33;22.20;85.40
80540;DHT22;69869;48.036;15.780;2023-07-24T10:31:01;22.30;85.10
80540;DHT22;69869;48.036;15.780;2023-07-24T10:33:30;22.20;85.70
80540;DHT22;69869;48.036;15.780;2023-07-24T10:36:05;22.20;85.80
80540;DHT22;69869;48.036;15.780;2023-07-24T10:38:35;22.20;85.70
80540;DHT22;69869;48.036;15.780;2023-07-24T10:41:03;22.20;85.80
80540;DHT22;69869;48.036;15.780;2023-07-24T10:43:29;22.30;84.70
80540;DHT22;69869;48.036;15.780;2023-07-24T10:45:55;22.30;82.70
80540;DHT22;69869;48.036;15.780;2023-07-24T10:48:25;22.40;83.30
80540;DHT22;69869;48.036;15.780;2023-07-24T10:50:52;22.40;82.80
80540;DHT22;69869;48.036;15.780;2023-07-24T10:53:19;22.40;82.30
80540;DHT22;69869;48.036;15.780;2023-07-24T10:55:47;22.40;83.00
80540;DHT22;69869;48.036;15.780;2023-07-24T10:58:14;22.40;82.60
80540;DHT22;69869;48.036;15.780;2023-07-24T11:00:40;22.40;83.70
80540;DHT22;69869;48.036;15.780;2023-07-24T11:03:10;22.40;84.40
80540;DHT22;69869;48.036;15.780;2023-07-24T11:05:46;22.30;84.70
80540;DHT22;69869;48.036;15.780;2023-07-24T11:08:17;22.30;83.60
80540;DHT22;69869;48.036;15.780;2023-07-24T11:10:50;22.30;83.90
80540;DHT22;69869;48.036;15.780;2023-07-24T11:13:26;22.30;83.10
80540;DHT22;69869;48.036;15.780;2023-07-24T11:15:53;22.40;83.30
80540;DHT22;69869;48.036;15.780;2023-07-24T11:18:20;22.30;84.30
80540;DHT22;69869;48.036;15.780;2023-07-24T11:20:52;22.30;83.50
80540;DHT22;69869;48.036;15.780;2023-07-24T11:23:18;22.30;83.70
80540;DHT22;69869;48.036;15.780;2023-07-24T11:25:45;22.40;83.50
80540;DHT22;69869;48.036;15.780;2023-07-24T11:28:13;22.30;83.50
80540;DHT22;69869;48.036;15.780;2023-07-24T11:30:39;22.40;83.20
80540;DHT22;69869;48.036;15.780;2023-07-24T11:33:07;22.40;83.10
80540;DHT22;69869;48.036;15.780;2023-07-24T11:35:33;22.40;83.70
80540;DHT22;69869;48.036;15.780;2023-07-24T11:38:01;22.40;84.10
80540;DHT22;69869;48.036;15.780;2023-07-24T11:40:38;22.30;84.00
80540;DHT22;69869;48.036;15.780;2023-07-24T11:43:04;22.40;83.20
80540;DHT22;69869;48.036;15.780;2023-07-24T11:45:30;22.40;83.40
80540;DHT22;69869;48.036;15.780;2023-07-24T11:47:56;22.40;83.10
80540;DHT22;69869;48.036;15.780;2023-07-24T11:50:23;22.40;83.20
80540;DHT22;69869;48.036;15.780;2023-07-24T11:52:50;22.40;84.10
80540;DHT22;69869;48.036;15.780;2023-07-24T11:55:18;22.30;84.50
80540;DHT22;69869;48.036;15.780;2023-07-24T11:58:04;22.30;84.60
80540;DHT22;69869;48.036;15.780;2023-07-24T12:00:33;22.30;83.90
80540;DHT22;69869;48.036;15.780;2023-07-24T12:03:01;22.40;84.30
80540;DHT22;69869;48.036;15.780;2023-07-24T12:05:30;22.40;84.30
80540;DHT22;69869;48.036;15.780;2023-07-24T12:08:02;22.40;83.70
80540;DHT22;69869;48.036;15.780;2023-07-24T12:10:28;22.40;84.10
80540;DHT22;69869;48.036;15.780;2023-07-24T12:12:55;22.30;84.70
80540;DHT22;69869;48.036;15.780;2023-07-24T12:15:23;22.30;84.50
80540;DHT22;69869;48.036;15.780;2023-07-24T12:17:48;22.30;84.90
80540;DHT22;69869;48.036;15.780;2023-07-24T12:20:14;22.30;84.40
80540;DHT22;69869;48.036;15.780;2023-07-24T12:22:40;22.30;84.70
80540;DHT22;69869;48.036;15.780;2023-07-24T12:25:06;22.30;84.90
80540;DHT22;69869;48.036;15.780;2023-07-24T12:27:32;22.30;85.00
80540;DHT22;69869;48.036;15.780;2023-07-24T12:30:00;22.30;84.20
80540;DHT22;69869;48.036;15.780;2023-07-24T12:32:26;22.30;85.10
80540;DHT22;69869;48.036;15.780;2023-07-24T12:34:53;22.30;85.10
80540;DHT22;69869;48.036;15.780;2023-07-24T12:37:19;22.30;85.10
80540;DHT22;69869;48.036;15.780;2023-07-24T12:39:46;22.30;85.00
80540;DHT22;69869;48.036;15.780;2023-07-24T12:42:12;22.30;85.00
80540;DHT22;69869;48.036;15.780;2023-07-24T12:44:38;22.30;85.20
80540;DHT22;69869;48.036;15.780;2023-07-24T12:47:04;22.30;84.70
80540;DHT22;69869;48.036;15.780;2023-07-24T12:49:30;22.30;85.10
80540;DHT22;69869;48.036;15.780;2023-07-24T12:51:56;22.30;84.50
80540;DHT22;69869;48.036;15.780;2023-07-24T12:54:22;22.30;84.80
80540;DHT22;69869;48.036;15.780;2023-07-24T12:56:51;22.40;84.10
80540;DHT22;69869;48.036;15.780;2023-07-24T12:59:18;22.40;84.00
80540;DHT22;69869;48.036;15.780;2023-07-24T13:01:47;22.40;84.40
80540;DHT22;69869;48.036;15.780;2023-07-24T13:04:12;22.40;84.20
80540;DHT22;69869;48.036;15.780;2023-07-24T13:06:38;22.30;84.00
80540;DHT22;69869;48.036;15.780;2023-07-24T13:09:04;22.40;83.20
80540;DHT22;69869;48.036;15.780;2023-07-24T13:11:30;22.40;82.60
80540;DHT22;69869;48.036;15.780;2023-07-24T13:13:56;22.50;82.00
80540;DHT22;69869;48.036;15.780;2023-07-24T13:16:22;22.50;82.30
80540;DHT22;69869;48.036;15.780;2023-07-24T13:18:48;22.50;82.10
80540;DHT22;69869;48.036;15.780;2023-07-24T13:21:14;22.50;81.20
80540;DHT22;69869;48.036;15.780;2023-07-24T13:23:40;22.50;81.60
80540;DHT22;69869;48.036;15.780;2023-07-24T13:26:06;22.50;82.20
80540;DHT22;69869;48.036;15.780;2023-07-24T13:28:33;22.50;82.90
80540;DHT22;69869;48.036;15.780;2023-07-24T13:30:59;22.50;83.10
80540;DHT22;69869;48.036;15.780;2023-07-24T13:33:25;22.50;83.50
80540;DHT22;69869;48.036;15.780;2023-07-24T13:35:50;22.50;83.60
80540;DHT22;69869;48.036;15.780;2023-07-24T13:38:17;22.50;83.80
80540;DHT22;69869;48.036;15.780;2023-07-24T13:40:42;22.40;83.60
80540;DHT22;69869;48.036;15.780;2023-07-24T13:43:08;22.50;84.00
80540;DHT22;69869;48.036;15.780;2023-07-24T13:45:34;22.50;84.00
80540;DHT22;69869;48.036;15.780;2023-07-24T13:47:59;22.40;84.10
80540;DHT22;69869;48.036;15.780;2023-07-24T13:50:25;22.40;84.50
80540;DHT22;69869;48.036;15.780;2023-07-24T13:52:50;22.40;84.20
80540;DHT22;69869;48.036;15.780;2023-07-24T13:55:16;22.40;84.40
80540;DHT22;69869;48.036;15.780;2023-07-24T13:57:42;22.40;84.30
80540;DHT22;69869;48.036;15.780;2023-07-24T14:00:08;22.40;83.40
80540;DHT22;69869;48.036;15.780;2023-07-24T14:02:34;22.40;84.70
80540;DHT22;69869;48.036;15.780;2023-07-24T14:04:59;22.40;84.60
80540;DHT22;69869;48.036;15.780;2023-07-24T14:07:25;22.40;84.80
80540;DHT22;69869;48.036;15.780;2023-07-24T14:09:50;22.40;84.50
80540;DHT22;69869;48.036;15.780;2023-07-24T14:12:16;22.40;84.20
80540;DHT22;69869;48.036;15.780;2023-07-24T14:14:42;22.30;85.00
80540;DHT22;69869;48.036;15.780;2023-07-24T14:17:07;22.40;84.90
80540;DHT22;69869;48.036;15.780;2023-07-24T14:19:33;22.40;84.30
80540;DHT22;69869;48.036;15.780;2023-07-24T14:21:59;22.40;82.40
80540;DHT22;69869;48.036;15.780;2023-07-24T14:24:25;22.40;82.20
80540;DHT22;69869;48.036;15.780;2023-07-24T14:26:51;22.40;83.90
80540;DHT22;69869;48.036;15.780;2023-07-24T14:29:16;22.40;82.70
80540;DHT22;69869;48.036;15.780;2023-07-24T14:31:43;22.40;82.30
80540;DHT22;69869;48.036;15.780;2023-07-24T14:34:09;22.40;82.10
80540;DHT22;69869;48.036;15.780;2023-07-24T14:36:37;22.40;82.80
80540;DHT22;69869;48.036;15.780;2023-07-24T14:39:03;22.50;82.00
80540;DHT22;69869;48.036;15.780;2023-07-24T14:41:29;22.40;83.60
80540;DHT22;69869;48.036;15.780;2023-07-24T14:43:55;22.40;82.30
80540;DHT22;69869;48.036;15.780;2023-07-24T14:46:20;22.50;82.40
80540;DHT22;69869;48.036;15.780;2023-07-24T14:48:46;22.40;82.30
80540;DHT22;69869;48.036;15.780;2023-07-24T14:51:12;22.50;82.70
80540;DHT22;69869;48.036;15.780;2023-07-24T14:53:37;22.50;83.00
80540;DHT22;69869;48.036;15.780;2023-07-24T14:56:04;22.50;82.30
80540;DHT22;69869;48.036;15.780;2023-07-24T14:58:29;22.50;82.20
80540;DHT22;69869;48.036;15.780;2023-07-24T15:00:55;22.50;81.40
80540;DHT22;69869;48.036;15.780;2023-07-24T15:03:21;22.60;81.90
80540;DHT22;69869;48.036;15.780;2023-07-24T15:05:47;22.60;81.80
80540;DHT22;69869;48.036;15.780;2023-07-24T15:08:13;22.60;82.20
80540;DHT22;69869;48.036;15.780;2023-07-24T15:10:39;22.50;82.00
80540;DHT22;69869;48.036;15.780;2023-07-24T15:13:04;22.50;82.70
80540;DHT22;69869;48.036;15.780;2023-07-24T15:15:30;22.50;82.00
80540;DHT22;69869;48.036;15.780;2023-07-24T15:17:57;22.50;81.50